createdAt,value
2018-07-25T00:00:22.143Z,3.90
2018-07-25T00:01:22.319Z,3.40
2018-07-25T00:02:22.502Z,3.40
2018-07-25T00:03:22.685Z,3.20
2018-07-25T00:04:22.873Z,3.30
2018-07-25T00:05:23.056Z,3.50
2018-07-25T00:06:23.231Z,3.50
2018-07-25T00:07:23.415Z,3.40
2018-07-25T00:08:23.606Z,3.10
2018-07-25T00:09:23.784Z,3.20
2018-07-25T00:10:23.976Z,3.50
2018-07-25T00:11:24.156Z,3.50
2018-07-25T00:12:24.336Z,3.40
2018-07-25T00:13:24.527Z,3.30
2018-07-25T00:14:24.712Z,3.60
2018-07-25T00:15:24.877Z,3.20
2018-07-25T00:16:25.061Z,3.70
2018-07-25T00:17:25.246Z,3.20
2018-07-25T00:18:25.429Z,3.10
2018-07-25T00:19:25.615Z,3.30
2018-07-25T00:20:25.795Z,3.20
2018-07-25T00:21:26.012Z,3.10
2018-07-25T00:22:26.168Z,3.30
2018-07-25T00:23:26.339Z,3.10
2018-07-25T00:24:26.532Z,3.30
2018-07-25T00:25:26.718Z,3.30
2018-07-25T00:26:26.897Z,3.30
2018-07-25T00:27:27.084Z,3.20
2018-07-25T00:28:27.262Z,3.20
2018-07-25T00:29:27.445Z,3.30
2018-07-25T00:30:27.636Z,3.50
2018-07-25T00:32:27.994Z,3.40
2018-07-25T00:33:28.167Z,3.50
2018-07-25T00:34:28.350Z,3.50
2018-07-25T00:35:29.186Z,3.30
2018-07-25T00:36:28.705Z,3.50
2018-07-25T00:37:28.900Z,3.30
2018-07-25T00:38:29.625Z,3.10
2018-07-25T00:39:29.260Z,3.20
2018-07-25T00:40:29.478Z,3.50
2018-07-25T00:41:29.629Z,3.30
2018-07-25T00:42:29.819Z,3.40
2018-07-25T00:43:30.018Z,3.20
2018-07-25T00:44:30.193Z,3.50
2018-07-25T00:45:30.384Z,3.30
2018-07-25T00:46:30.569Z,3.50
2018-07-25T00:47:30.745Z,3.10
2018-07-25T00:48:30.943Z,2.90
2018-07-25T00:49:31.127Z,3.30
2018-07-25T00:50:31.301Z,3.10
2018-07-25T00:51:31.479Z,3.50
2018-07-25T00:52:31.665Z,3.60
2018-07-25T00:53:31.848Z,3.40
2018-07-25T00:54:32.032Z,3.30
2018-07-25T00:55:32.216Z,3.70
2018-07-25T00:56:32.402Z,3.30
2018-07-25T00:57:32.581Z,3.60
2018-07-25T00:58:32.759Z,4.00
2018-07-25T00:59:32.944Z,3.60
2018-07-25T01:00:33.129Z,3.60
2018-07-25T01:01:33.313Z,3.80
2018-07-25T01:02:33.496Z,3.60
2018-07-25T01:03:33.681Z,3.40
2018-07-25T01:04:33.852Z,3.20
2018-07-25T01:06:34.217Z,3.50
2018-07-25T01:07:34.399Z,3.40
2018-07-25T01:08:34.593Z,3.10
2018-07-25T01:09:34.761Z,3.40
2018-07-25T01:10:34.945Z,3.40
2018-07-25T01:11:35.136Z,3.80
2018-07-25T01:12:35.332Z,3.40
2018-07-25T01:13:35.485Z,3.50
2018-07-25T01:14:35.672Z,3.20
2018-07-25T01:15:35.853Z,3.20
2018-07-25T01:16:36.038Z,4.10
2018-07-25T01:17:36.217Z,3.50
2018-07-25T01:18:36.401Z,3.40
2018-07-25T01:19:36.584Z,3.40
2018-07-25T01:20:36.764Z,3.40
2018-07-25T01:21:36.942Z,3.60
2018-07-25T01:22:37.121Z,3.30
2018-07-25T01:23:37.318Z,3.30
2018-07-25T01:24:37.499Z,3.40
2018-07-25T01:25:37.677Z,3.40
2018-07-25T01:26:37.858Z,3.40
2018-07-25T01:27:38.046Z,3.40
2018-07-25T01:28:38.224Z,3.60
2018-07-25T01:29:38.409Z,3.70
2018-07-25T01:30:38.581Z,3.20
2018-07-25T01:31:38.768Z,3.50
2018-07-25T01:32:38.945Z,3.50
2018-07-25T01:33:39.131Z,3.70
2018-07-25T01:34:39.325Z,3.50
2018-07-25T01:35:39.496Z,3.50
2018-07-25T01:36:39.688Z,3.80
2018-07-25T01:37:39.873Z,3.60
2018-07-25T01:38:40.044Z,3.60
2018-07-25T01:39:40.230Z,3.50
2018-07-25T01:40:40.430Z,3.40
2018-07-25T01:41:40.589Z,3.40
2018-07-25T01:42:40.773Z,3.40
2018-07-25T01:43:40.957Z,3.60
2018-07-25T01:44:41.135Z,3.30
2018-07-25T01:45:41.320Z,3.50
2018-07-25T01:46:41.503Z,3.60
2018-07-25T01:47:41.676Z,3.50
2018-07-25T01:48:41.861Z,3.70
2018-07-25T01:49:42.037Z,3.80
2018-07-25T01:50:42.224Z,3.30
2018-07-25T01:51:42.417Z,3.60
2018-07-25T01:52:42.611Z,3.70
2018-07-25T01:53:42.774Z,3.80
2018-07-25T01:54:42.966Z,3.40
2018-07-25T01:55:43.151Z,3.30
2018-07-25T01:56:43.324Z,3.50
2018-07-25T01:57:43.519Z,3.60
2018-07-25T01:58:43.691Z,3.10
2018-07-25T01:59:43.889Z,3.70
2018-07-25T02:00:44.048Z,3.40
2018-07-25T02:01:44.225Z,3.40
2018-07-25T02:02:44.425Z,3.30
2018-07-25T02:03:44.594Z,3.40
2018-07-25T02:04:44.795Z,3.70
2018-07-25T02:05:44.956Z,3.60
2018-07-25T02:06:45.140Z,3.60
2018-07-25T02:07:45.331Z,3.70
2018-07-25T02:08:45.499Z,3.40
2018-07-25T02:09:45.681Z,3.60
2018-07-25T02:11:46.050Z,3.80
2018-07-25T02:12:46.238Z,3.40
2018-07-25T02:13:46.410Z,3.40
2018-07-25T02:14:46.601Z,3.70
2018-07-25T02:15:46.771Z,3.50
2018-07-25T02:16:46.960Z,3.30
2018-07-25T02:17:47.144Z,3.40
2018-07-25T02:18:47.322Z,3.40
2018-07-25T02:19:47.507Z,3.20
2018-07-25T02:21:47.876Z,3.60
2018-07-25T02:22:48.050Z,3.70
2018-07-25T02:23:48.233Z,3.60
2018-07-25T02:24:48.410Z,3.80
2018-07-25T02:25:48.600Z,3.50
2018-07-25T02:26:48.783Z,3.60
2018-07-25T02:27:48.958Z,3.50
2018-07-25T02:28:49.165Z,3.30
2018-07-25T02:29:49.337Z,4.00
2018-07-25T02:30:49.525Z,3.60
2018-07-25T02:31:49.694Z,3.50
2018-07-25T02:32:49.875Z,3.70
2018-07-25T02:33:50.069Z,3.50
2018-07-25T02:34:50.253Z,3.70
2018-07-25T02:35:50.431Z,3.70
2018-07-25T02:36:50.612Z,3.60
2018-07-25T02:37:50.800Z,3.80
2018-07-25T02:38:50.978Z,3.50
2018-07-25T02:39:51.178Z,3.60
2018-07-25T02:40:51.347Z,3.70
2018-07-25T02:41:51.532Z,3.70
2018-07-25T02:42:51.741Z,3.60
2018-07-25T02:43:51.963Z,4.00
2018-07-25T02:44:52.107Z,3.60
2018-07-25T02:45:52.287Z,3.70
2018-07-25T02:46:52.465Z,3.80
2018-07-25T02:47:52.666Z,3.70
2018-07-25T02:48:52.837Z,3.80
2018-07-25T02:49:53.023Z,3.80
2018-07-25T02:50:53.206Z,3.70
2018-07-25T02:51:53.398Z,3.60
2018-07-25T02:52:53.564Z,3.80
2018-07-25T02:53:53.752Z,3.60
2018-07-25T02:54:53.936Z,3.80
2018-07-25T02:55:54.107Z,3.80
2018-07-25T02:56:54.400Z,3.70
2018-07-25T02:57:54.476Z,3.70
2018-07-25T02:58:54.651Z,3.80
2018-07-25T02:59:54.833Z,3.70
2018-07-25T03:00:55.020Z,3.70
2018-07-25T03:01:55.211Z,3.80
2018-07-25T03:02:55.386Z,3.80
2018-07-25T03:03:55.565Z,3.80
2018-07-25T03:04:55.744Z,3.70
2018-07-25T03:05:55.935Z,3.80
2018-07-25T03:06:56.115Z,3.70
2018-07-25T03:07:56.301Z,3.90
2018-07-25T03:08:56.510Z,3.90
2018-07-25T03:09:56.662Z,3.90
2018-07-25T03:10:56.836Z,3.70
2018-07-25T03:11:57.026Z,3.80
2018-07-25T03:12:57.204Z,3.70
2018-07-25T03:13:57.376Z,3.90
2018-07-25T03:14:57.563Z,4.00
2018-07-25T03:15:57.737Z,4.00
2018-07-25T03:16:57.925Z,4.00
2018-07-25T03:17:58.099Z,3.80
2018-07-25T03:18:58.293Z,3.80
2018-07-25T03:19:58.462Z,3.70
2018-07-25T03:20:58.647Z,3.90
2018-07-25T03:21:58.825Z,3.80
2018-07-25T03:22:59.008Z,3.90
2018-07-25T03:23:59.192Z,3.90
2018-07-25T03:24:59.379Z,4.00
2018-07-25T03:25:59.562Z,4.10
2018-07-25T03:26:59.738Z,3.80
2018-07-25T03:27:59.917Z,3.80
2018-07-25T03:29:00.106Z,3.50
2018-07-25T03:30:00.282Z,4.00
2018-07-25T03:31:00.465Z,4.20
2018-07-25T03:32:00.646Z,3.90
2018-07-25T03:33:00.832Z,3.70
2018-07-25T03:34:01.009Z,4.20
2018-07-25T03:35:01.191Z,3.90
2018-07-25T03:36:01.372Z,3.80
2018-07-25T03:37:01.559Z,4.50
2018-07-25T03:38:01.742Z,4.20
2018-07-25T03:39:01.918Z,3.90
2018-07-25T03:40:02.103Z,4.30
2018-07-25T03:41:02.292Z,3.90
2018-07-25T03:42:02.460Z,4.00
2018-07-25T03:43:02.642Z,4.10
2018-07-25T03:44:02.823Z,3.80
2018-07-25T03:45:03.007Z,4.00
2018-07-25T03:46:03.181Z,4.20
2018-07-25T03:47:03.374Z,4.90
2018-07-25T03:48:03.559Z,5.10
2018-07-25T03:49:03.742Z,5.40
2018-07-25T03:51:04.099Z,4.60
2018-07-25T03:52:04.284Z,4.40
2018-07-25T03:53:04.467Z,4.10
2018-07-25T03:54:04.646Z,4.20
2018-07-25T03:55:04.836Z,4.20
2018-07-25T03:56:05.017Z,4.20
2018-07-25T03:57:05.199Z,4.20
2018-07-25T03:58:05.381Z,4.00
2018-07-25T03:59:05.563Z,4.30
2018-07-25T04:00:05.772Z,3.90
2018-07-25T04:01:05.929Z,4.20
2018-07-25T04:02:06.204Z,4.30
2018-07-25T04:03:06.296Z,3.90
2018-07-25T04:04:06.479Z,3.80
2018-07-25T04:05:06.659Z,4.70
2018-07-25T04:06:06.841Z,4.10
2018-07-25T04:07:07.024Z,3.80
2018-07-25T04:08:07.213Z,4.30
2018-07-25T04:09:07.398Z,3.80
2018-07-25T04:10:07.571Z,4.40
2018-07-25T04:11:07.754Z,4.40
2018-07-25T04:12:07.935Z,3.80
2018-07-25T04:13:08.119Z,4.10
2018-07-25T04:14:08.304Z,4.30
2018-07-25T04:15:08.493Z,3.90
2018-07-25T04:16:08.668Z,4.30
2018-07-25T04:17:08.845Z,4.00
2018-07-25T04:18:09.035Z,3.80
2018-07-25T04:19:09.250Z,4.10
2018-07-25T04:20:09.388Z,4.50
2018-07-25T04:21:09.569Z,4.30
2018-07-25T04:22:09.749Z,3.90
2018-07-25T04:23:09.937Z,4.00
2018-07-25T04:25:10.305Z,4.30
2018-07-25T04:26:10.471Z,4.10
2018-07-25T04:27:10.658Z,4.40
2018-07-25T04:28:10.838Z,3.80
2018-07-25T04:29:11.019Z,4.10
2018-07-25T04:30:11.213Z,3.80
2018-07-25T04:31:11.390Z,3.90
2018-07-25T04:32:11.577Z,3.70
2018-07-25T04:33:11.760Z,3.70
2018-07-25T04:34:11.961Z,3.40
2018-07-25T04:35:12.121Z,3.90
2018-07-25T04:36:12.312Z,3.80
2018-07-25T04:37:12.489Z,3.60
2018-07-25T04:38:12.673Z,3.40
2018-07-25T04:39:12.851Z,3.80
2018-07-25T04:40:13.035Z,3.80
2018-07-25T04:41:13.219Z,3.60
2018-07-25T04:42:13.403Z,3.30
2018-07-25T04:43:13.592Z,3.70
2018-07-25T04:44:13.780Z,3.90
2018-07-25T04:45:13.955Z,3.50
2018-07-25T04:46:14.248Z,3.60
2018-07-25T04:47:14.321Z,3.30
2018-07-25T04:48:14.505Z,3.70
2018-07-25T04:49:14.697Z,3.50
2018-07-25T04:50:14.882Z,3.50
2018-07-25T04:51:15.076Z,3.50
2018-07-25T04:52:15.253Z,3.70
2018-07-25T04:53:15.436Z,3.50
2018-07-25T04:54:15.618Z,3.30
2018-07-25T04:55:15.814Z,3.30
2018-07-25T04:56:16.094Z,3.50
2018-07-25T04:57:16.185Z,3.30
2018-07-25T04:58:16.368Z,3.30
2018-07-25T04:59:16.564Z,3.40
2018-07-25T05:00:16.758Z,3.70
2018-07-25T05:01:16.932Z,3.30
2018-07-25T05:02:17.119Z,3.10
2018-07-25T05:03:17.314Z,3.70
2018-07-25T05:04:17.490Z,3.60
2018-07-25T05:06:17.865Z,4.10
2018-07-25T05:07:18.055Z,3.80
2018-07-25T05:08:18.243Z,3.40
2018-07-25T05:09:18.438Z,3.40
2018-07-25T05:10:18.626Z,3.50
2018-07-25T05:11:18.813Z,3.50
2018-07-25T05:12:19.008Z,3.70
2018-07-25T05:13:19.188Z,3.30
2018-07-25T05:14:19.382Z,3.40
2018-07-25T05:15:19.570Z,3.60
2018-07-25T05:16:19.768Z,3.50
2018-07-25T05:17:19.943Z,3.90
2018-07-25T05:18:20.135Z,3.60
2018-07-25T05:19:20.320Z,3.60
2018-07-25T05:20:20.494Z,3.70
2018-07-25T05:21:20.701Z,3.50
2018-07-25T05:22:20.880Z,4.10
2018-07-25T05:23:21.177Z,3.80
2018-07-25T05:24:21.264Z,3.80
2018-07-25T05:25:21.454Z,3.70
2018-07-25T05:26:21.642Z,3.60
2018-07-25T05:27:21.834Z,3.60
2018-07-25T05:28:22.023Z,3.50
2018-07-25T05:29:22.214Z,3.60
2018-07-25T05:30:22.408Z,3.80
2018-07-25T05:31:22.599Z,3.70
2018-07-25T05:32:22.789Z,3.40
2018-07-25T05:33:22.981Z,3.30
2018-07-25T05:34:23.174Z,3.50
2018-07-25T05:35:23.363Z,3.40
2018-07-25T05:36:23.556Z,3.60
2018-07-25T05:37:23.990Z,3.60
2018-07-25T05:38:23.939Z,4.10
2018-07-25T05:39:24.143Z,4.00
2018-07-25T05:40:24.322Z,3.90
2018-07-25T05:41:24.514Z,3.50
2018-07-25T05:42:24.706Z,3.90
2018-07-25T05:43:24.897Z,3.70
2018-07-25T05:44:25.086Z,4.00
2018-07-25T05:45:25.276Z,3.80
2018-07-25T05:46:25.471Z,3.90
2018-07-25T05:47:25.671Z,3.70
2018-07-25T05:48:25.863Z,3.80
2018-07-25T05:49:26.106Z,3.80
2018-07-25T05:50:26.235Z,3.60
2018-07-25T05:51:26.437Z,3.50
2018-07-25T05:52:26.613Z,3.60
2018-07-25T05:53:26.810Z,3.70
2018-07-25T05:54:27.001Z,3.70
2018-07-25T05:55:27.193Z,3.70
2018-07-25T05:56:27.388Z,3.70
2018-07-25T05:57:27.587Z,3.30
2018-07-25T05:58:27.790Z,3.30
2018-07-25T05:59:27.970Z,3.50
2018-07-25T06:00:28.166Z,3.30
2018-07-25T06:01:28.353Z,3.50
2018-07-25T06:02:28.547Z,3.20
2018-07-25T06:03:28.745Z,3.30
2018-07-25T06:04:28.932Z,3.30
2018-07-25T06:05:29.124Z,3.60
2018-07-25T06:06:29.316Z,3.10
2018-07-25T06:07:29.522Z,3.40
2018-07-25T06:08:29.746Z,3.60
2018-07-25T06:09:29.891Z,3.80
2018-07-25T06:10:30.084Z,3.60
2018-07-25T06:11:30.283Z,4.00
2018-07-25T06:12:30.466Z,3.80
2018-07-25T06:13:30.655Z,3.50
2018-07-25T06:14:30.860Z,3.70
2018-07-25T06:15:31.085Z,3.40
2018-07-25T06:16:31.447Z,3.60
2018-07-25T06:17:31.535Z,3.70
2018-07-25T06:18:31.637Z,3.70
2018-07-25T06:19:32.040Z,3.40
2018-07-25T06:20:32.271Z,3.20
2018-07-25T06:21:32.270Z,3.30
2018-07-25T06:22:32.466Z,3.70
2018-07-25T06:23:32.672Z,3.70
2018-07-25T06:24:32.844Z,3.90
2018-07-25T06:25:33.038Z,3.90
2018-07-25T06:26:33.233Z,3.70
2018-07-25T06:27:33.409Z,3.50
2018-07-25T06:28:33.597Z,3.70
2018-07-25T06:29:33.794Z,3.80
2018-07-25T06:31:34.179Z,3.60
2018-07-25T06:32:34.363Z,3.60
2018-07-25T06:33:34.559Z,3.50
2018-07-25T06:34:34.750Z,3.30
2018-07-25T06:35:34.952Z,3.80
2018-07-25T06:36:35.136Z,3.50
2018-07-25T06:37:35.331Z,3.70
2018-07-25T06:38:35.527Z,3.60
2018-07-25T06:39:35.713Z,3.40
2018-07-25T06:40:36.835Z,3.10
2018-07-25T06:41:36.171Z,3.30
2018-07-25T06:42:36.363Z,3.00
2018-07-25T06:43:36.582Z,3.40
2018-07-25T06:44:36.749Z,3.30
2018-07-25T06:45:36.943Z,3.30
2018-07-25T06:46:37.134Z,3.10
2018-07-25T06:47:37.343Z,3.30
2018-07-25T06:48:37.530Z,3.50
2018-07-25T06:49:37.717Z,3.80
2018-07-25T06:50:37.922Z,3.60
2018-07-25T06:51:38.110Z,3.80
2018-07-25T06:52:38.305Z,3.80
2018-07-25T06:53:38.496Z,3.70
2018-07-25T06:54:38.689Z,3.40
2018-07-25T06:55:38.882Z,3.60
2018-07-25T06:56:39.080Z,3.70
2018-07-25T06:57:39.262Z,3.30
2018-07-25T06:58:39.491Z,3.60
2018-07-25T06:59:39.640Z,3.30
2018-07-25T07:00:39.819Z,3.80
2018-07-25T07:01:40.037Z,3.30
2018-07-25T07:02:40.230Z,3.30
2018-07-25T07:03:40.417Z,3.30
2018-07-25T07:04:40.609Z,3.60
2018-07-25T07:05:40.810Z,3.30
2018-07-25T07:06:41.088Z,3.40
2018-07-25T07:07:41.209Z,3.80
2018-07-25T07:08:41.436Z,3.60
2018-07-25T07:09:41.586Z,3.10
2018-07-25T07:10:41.822Z,3.30
2018-07-25T07:11:41.965Z,2.90
2018-07-25T07:12:42.237Z,3.00
2018-07-25T07:13:42.304Z,3.20
2018-07-25T07:14:42.492Z,3.10
2018-07-25T07:15:42.684Z,3.20
2018-07-25T07:16:42.872Z,3.00
2018-07-25T07:17:43.065Z,2.90
2018-07-25T07:18:43.255Z,3.00
2018-07-25T07:19:43.446Z,3.20
2018-07-25T07:20:43.644Z,3.50
2018-07-25T07:21:43.837Z,2.90
2018-07-25T07:22:44.031Z,3.20
2018-07-25T07:23:44.210Z,2.90
2018-07-25T07:24:44.406Z,3.20
2018-07-25T07:25:44.641Z,3.10
2018-07-25T07:26:44.791Z,3.30
2018-07-25T07:27:44.975Z,3.00
2018-07-25T07:28:45.170Z,3.20
2018-07-25T07:29:45.367Z,3.20
2018-07-25T07:30:45.559Z,3.40
2018-07-25T07:31:45.755Z,3.10
2018-07-25T07:32:45.953Z,3.10
2018-07-25T07:33:46.138Z,3.20
2018-07-25T07:34:46.337Z,2.80
2018-07-25T07:35:46.527Z,3.10
2018-07-25T07:36:46.720Z,3.40
2018-07-25T07:37:46.942Z,3.10
2018-07-25T07:38:47.097Z,3.00
2018-07-25T07:39:47.293Z,3.00
2018-07-25T07:40:47.729Z,2.80
2018-07-25T07:42:47.879Z,3.10
2018-07-25T07:43:48.080Z,3.30
2018-07-25T07:44:48.259Z,3.10
2018-07-25T07:45:48.468Z,3.10
2018-07-25T07:46:48.658Z,2.80
2018-07-25T07:47:48.855Z,2.80
2018-07-25T07:48:49.043Z,2.90
2018-07-25T07:49:49.241Z,3.00
2018-07-25T07:50:49.459Z,2.90
2018-07-25T07:51:49.641Z,3.20
2018-07-25T07:52:49.840Z,2.70
2018-07-25T07:53:50.135Z,3.00
2018-07-25T07:54:50.200Z,3.00
2018-07-25T07:55:50.378Z,2.60
2018-07-25T07:56:50.583Z,2.90
2018-07-25T07:57:50.772Z,2.70
2018-07-25T07:58:50.969Z,3.00
2018-07-25T07:59:51.169Z,2.90
2018-07-25T08:00:51.408Z,2.80
2018-07-25T08:01:51.558Z,3.10
2018-07-25T08:02:51.745Z,3.00
2018-07-25T08:03:51.953Z,3.20
2018-07-25T08:04:52.159Z,3.10
2018-07-25T08:05:52.376Z,2.90
2018-07-25T08:06:52.581Z,2.80
2018-07-25T08:07:52.802Z,2.80
2018-07-25T08:08:53.025Z,3.00
2018-07-25T08:09:53.192Z,2.90
2018-07-25T08:10:53.387Z,2.80
2018-07-25T08:11:53.551Z,3.10
2018-07-25T08:12:53.781Z,2.70
2018-07-25T08:13:53.976Z,2.90
2018-07-25T08:14:54.177Z,2.90
2018-07-25T08:15:54.362Z,2.80
2018-07-25T08:16:54.556Z,3.10
2018-07-25T08:17:54.775Z,2.70
2018-07-25T08:18:54.941Z,2.70
2018-07-25T08:19:55.128Z,2.80
2018-07-25T08:20:55.333Z,3.00
2018-07-25T08:21:55.505Z,3.00
2018-07-25T08:22:55.690Z,2.90
2018-07-25T08:23:55.885Z,3.10
2018-07-25T08:24:56.429Z,2.60
2018-07-25T08:25:56.271Z,2.80
2018-07-25T08:26:56.448Z,3.00
2018-07-25T08:27:56.647Z,2.80
2018-07-25T08:28:56.828Z,2.80
2018-07-25T08:29:57.015Z,2.60
2018-07-25T08:30:57.296Z,2.70
2018-07-25T08:31:57.533Z,2.60
2018-07-25T08:32:57.624Z,2.50
2018-07-25T08:33:57.791Z,2.60
2018-07-25T08:34:57.994Z,3.00
2018-07-25T08:35:58.184Z,2.80
2018-07-25T08:36:58.357Z,2.80
2018-07-25T08:37:58.581Z,2.90
2018-07-25T08:38:58.737Z,2.80
2018-07-25T08:39:58.914Z,2.80
2018-07-25T08:40:59.103Z,2.70
2018-07-25T08:41:59.402Z,2.80
2018-07-25T08:42:59.453Z,2.40
2018-07-25T08:43:59.702Z,2.40
2018-07-25T08:44:59.849Z,2.30
2018-07-25T08:46:00.095Z,2.40
2018-07-25T08:47:00.251Z,2.70
2018-07-25T08:48:00.439Z,2.70
2018-07-25T08:49:00.660Z,2.20
2018-07-25T08:50:00.844Z,2.50
2018-07-25T08:51:01.041Z,2.60
2018-07-25T08:52:01.225Z,2.30
2018-07-25T08:53:01.423Z,2.80
2018-07-25T08:54:01.629Z,2.40
2018-07-25T08:55:01.785Z,2.50
2018-07-25T08:56:01.998Z,3.10
2018-07-25T08:57:02.217Z,2.70
2018-07-25T08:58:02.393Z,2.90
2018-07-25T08:59:02.607Z,3.00
2018-07-25T09:00:02.774Z,2.70
2018-07-25T09:01:02.951Z,3.00
2018-07-25T09:02:03.134Z,2.80
2018-07-25T09:03:03.332Z,3.10
2018-07-25T09:04:03.506Z,3.00
2018-07-25T09:05:03.697Z,3.10
2018-07-25T09:06:03.914Z,3.00
2018-07-25T09:08:04.261Z,3.10
2018-07-25T09:09:04.451Z,2.90
2018-07-25T09:10:04.644Z,2.70
2018-07-25T09:11:04.830Z,3.10
2018-07-25T09:12:05.054Z,2.90
2018-07-25T09:13:05.285Z,2.80
2018-07-25T09:14:05.440Z,2.70
2018-07-25T09:15:05.618Z,2.70
2018-07-25T09:16:05.825Z,2.70
2018-07-25T09:17:06.017Z,2.50
2018-07-25T09:18:06.205Z,2.70
2018-07-25T09:19:06.458Z,2.50
2018-07-25T09:20:06.602Z,3.10
2018-07-25T09:21:06.787Z,2.50
2018-07-25T09:22:06.980Z,2.60
2018-07-25T09:23:07.204Z,2.60
2018-07-25T09:24:07.383Z,2.70
2018-07-25T09:25:07.883Z,3.70
2018-07-25T09:26:07.766Z,14.40
2018-07-25T09:27:07.950Z,3.70
2018-07-25T09:28:08.143Z,2.70
2018-07-25T09:29:08.369Z,2.40
2018-07-25T09:30:08.506Z,2.40
2018-07-25T09:31:08.671Z,2.70
2018-07-25T09:32:08.860Z,2.20
2018-07-25T09:33:09.044Z,1.90
2018-07-25T09:34:09.347Z,2.00
2018-07-25T09:35:09.396Z,2.20
2018-07-25T09:36:09.598Z,2.40
2018-07-25T09:37:09.778Z,2.20
2018-07-25T09:38:09.948Z,2.30
2018-07-25T09:39:10.137Z,2.60
2018-07-25T09:40:10.326Z,2.70
2018-07-25T09:41:10.510Z,2.70
2018-07-25T09:42:10.704Z,2.50
2018-07-25T09:43:10.899Z,2.60
2018-07-25T09:44:11.110Z,2.50
2018-07-25T09:45:11.242Z,2.30
2018-07-25T09:46:11.431Z,2.60
2018-07-25T09:47:11.613Z,2.60
2018-07-25T09:48:11.823Z,2.50
2018-07-25T09:49:12.009Z,2.40
2018-07-25T09:50:12.183Z,2.40
2018-07-25T09:51:12.405Z,2.40
2018-07-25T09:52:12.584Z,2.50
2018-07-25T09:53:12.834Z,2.40
2018-07-25T09:54:12.953Z,2.20
2018-07-25T09:55:13.109Z,2.60
2018-07-25T09:56:13.300Z,2.60
2018-07-25T09:57:13.506Z,2.50
2018-07-25T09:58:13.705Z,2.60
2018-07-25T09:59:14.137Z,2.30
2018-07-25T10:00:14.078Z,2.40
2018-07-25T10:01:14.266Z,2.70
2018-07-25T10:02:14.451Z,2.70
2018-07-25T10:03:14.643Z,2.40
2018-07-25T10:04:14.838Z,2.60
2018-07-25T10:05:15.039Z,2.40
2018-07-25T10:06:15.223Z,2.40
2018-07-25T10:07:15.429Z,2.30
2018-07-25T10:08:15.615Z,2.30
2018-07-25T10:09:15.814Z,2.20
2018-07-25T10:10:16.022Z,2.30
2018-07-25T10:11:16.193Z,2.50
2018-07-25T10:12:16.402Z,2.90
2018-07-25T10:13:16.637Z,2.60
2018-07-25T10:14:16.777Z,3.20
2018-07-25T10:15:17.013Z,2.90
2018-07-25T10:16:17.169Z,2.70
2018-07-25T10:17:17.360Z,2.60
2018-07-25T10:18:17.542Z,2.60
2018-07-25T10:19:17.740Z,3.10
2018-07-25T10:20:17.912Z,2.70
2018-07-25T10:21:18.132Z,2.20
2018-07-25T10:22:18.351Z,2.60
2018-07-25T10:23:18.545Z,2.40
2018-07-25T10:24:18.698Z,2.60
2018-07-25T10:25:18.893Z,3.10
2018-07-25T10:26:19.090Z,4.00
2018-07-25T10:27:19.291Z,5.60
2018-07-25T10:28:19.445Z,3.80
2018-07-25T10:29:19.622Z,2.60
2018-07-25T10:30:19.821Z,2.30
2018-07-25T10:31:20.069Z,2.30
2018-07-25T10:32:20.180Z,2.30
2018-07-25T10:33:20.376Z,2.30
2018-07-25T10:34:20.584Z,2.50
2018-07-25T10:35:20.770Z,2.70
2018-07-25T10:36:20.986Z,2.50
2018-07-25T10:37:21.162Z,3.20
2018-07-25T10:38:21.344Z,2.70
2018-07-25T10:39:21.544Z,2.80
2018-07-25T10:40:21.737Z,2.70
2018-07-25T10:41:21.915Z,2.50
2018-07-25T10:42:22.090Z,2.80
2018-07-25T10:43:22.275Z,2.60
2018-07-25T10:44:22.467Z,2.70
2018-07-25T10:45:22.646Z,2.60
2018-07-25T10:46:22.842Z,2.60
2018-07-25T10:47:23.016Z,2.70
2018-07-25T10:48:23.204Z,2.70
2018-07-25T10:49:23.398Z,2.70
2018-07-25T10:50:23.585Z,2.70
2018-07-25T10:51:23.781Z,3.30
2018-07-25T10:52:24.223Z,2.90
2018-07-25T10:53:24.146Z,2.70
2018-07-25T10:54:24.341Z,2.60
2018-07-25T10:55:24.515Z,2.80
2018-07-25T10:56:24.709Z,5.70
2018-07-25T10:57:24.908Z,3.50
2018-07-25T10:58:25.084Z,3.30
2018-07-25T10:59:25.518Z,3.40
2018-07-25T11:00:25.465Z,3.30
2018-07-25T11:01:25.652Z,3.90
2018-07-25T11:02:25.832Z,3.10
2018-07-25T11:03:26.022Z,2.90
2018-07-25T11:04:26.205Z,2.80
2018-07-25T11:05:26.399Z,2.70
2018-07-25T11:06:26.582Z,3.10
2018-07-25T11:07:26.790Z,3.80
2018-07-25T11:08:26.998Z,2.80
2018-07-25T11:09:27.166Z,2.40
2018-07-25T11:10:27.361Z,2.30
2018-07-25T11:11:27.545Z,2.40
2018-07-25T11:12:27.748Z,2.50
2018-07-25T11:13:28.209Z,2.90
2018-07-25T11:14:28.122Z,2.70
2018-07-25T11:15:28.316Z,2.50
2018-07-25T11:16:28.524Z,2.80
2018-07-25T11:17:28.690Z,2.80
2018-07-25T11:18:28.891Z,2.60
2018-07-25T11:19:29.071Z,2.80
2018-07-25T11:20:29.283Z,2.40
2018-07-25T11:21:29.460Z,2.50
2018-07-25T11:22:29.643Z,2.50
2018-07-25T11:23:29.839Z,2.70
2018-07-25T11:24:30.035Z,2.40
2018-07-25T11:25:30.211Z,2.30
2018-07-25T11:26:30.407Z,2.50
2018-07-25T11:27:30.593Z,2.50
2018-07-25T11:28:30.770Z,2.40
2018-07-25T11:29:30.965Z,2.50
2018-07-25T11:30:31.149Z,2.30
2018-07-25T11:31:31.348Z,2.70
2018-07-25T11:32:31.644Z,2.80
2018-07-25T11:33:31.792Z,2.70
2018-07-25T11:34:31.910Z,4.10
2018-07-25T11:35:32.093Z,4.50
2018-07-25T11:36:32.258Z,2.70
2018-07-25T11:37:32.486Z,3.30
2018-07-25T11:38:32.645Z,5.20
2018-07-25T11:39:32.828Z,2.70
2018-07-25T11:40:33.010Z,3.10
2018-07-25T11:41:33.206Z,2.50
2018-07-25T11:42:33.396Z,2.50
2018-07-25T11:43:33.665Z,2.70
2018-07-25T11:44:33.778Z,2.60
2018-07-25T11:45:33.961Z,2.80
2018-07-25T11:46:34.148Z,3.00
2018-07-25T11:47:34.342Z,2.80
2018-07-25T11:48:34.528Z,3.00
2018-07-25T11:49:34.718Z,3.00
2018-07-25T11:50:34.901Z,2.80
2018-07-25T11:51:35.077Z,3.30
2018-07-25T11:52:35.277Z,2.90
2018-07-25T11:53:35.442Z,2.40
2018-07-25T11:54:35.636Z,2.50
2018-07-25T11:55:36.019Z,2.70
2018-07-25T11:56:36.012Z,2.40
2018-07-25T11:57:36.198Z,2.50
2018-07-25T11:58:36.397Z,2.40
2018-07-25T11:59:36.578Z,3.00
2018-07-25T12:00:36.769Z,2.40
2018-07-25T12:01:36.984Z,2.50
2018-07-25T12:02:37.144Z,2.60
2018-07-25T12:03:37.335Z,2.50
2018-07-25T12:04:37.528Z,2.30
2018-07-25T12:06:37.919Z,2.60
2018-07-25T12:07:38.089Z,2.10
2018-07-25T12:08:38.288Z,2.30
2018-07-25T12:09:38.470Z,2.10
2018-07-25T12:10:38.654Z,2.30
2018-07-25T12:11:38.841Z,2.20
2018-07-25T12:12:39.031Z,2.10
2018-07-25T12:13:39.223Z,2.40
2018-07-25T12:14:39.408Z,2.20
2018-07-25T12:15:39.599Z,3.30
2018-07-25T12:16:39.793Z,2.70
2018-07-25T12:17:39.977Z,2.40
2018-07-25T12:18:40.166Z,3.90
2018-07-25T12:19:40.357Z,2.30
2018-07-25T12:20:40.546Z,2.30
2018-07-25T12:21:40.759Z,2.30
2018-07-25T12:22:40.951Z,2.20
2018-07-25T12:23:41.145Z,2.40
2018-07-25T12:24:41.355Z,2.30
2018-07-25T12:25:41.530Z,2.10
2018-07-25T12:26:41.731Z,2.20
2018-07-25T12:27:41.903Z,2.20
2018-07-25T12:28:42.088Z,2.00
2018-07-25T12:29:42.298Z,2.30
2018-07-25T12:30:42.469Z,2.10
2018-07-25T12:31:42.711Z,1.90
2018-07-25T12:32:42.841Z,2.00
2018-07-25T12:33:43.046Z,2.00
2018-07-25T12:34:43.208Z,2.00
2018-07-25T12:35:43.398Z,1.90
2018-07-25T12:36:43.591Z,2.20
2018-07-25T12:37:43.782Z,2.00
2018-07-25T12:38:43.965Z,2.30
2018-07-25T12:39:44.160Z,2.40
2018-07-25T12:40:44.380Z,2.10
2018-07-25T12:41:44.626Z,2.30
2018-07-25T12:42:44.760Z,2.30
2018-07-25T12:43:44.915Z,2.20
2018-07-25T12:44:45.100Z,2.20
2018-07-25T12:45:45.289Z,2.40
2018-07-25T12:46:45.472Z,2.40
2018-07-25T12:47:45.660Z,2.00
2018-07-25T12:48:45.858Z,2.90
2018-07-25T12:49:46.039Z,2.20
2018-07-25T12:50:46.217Z,2.10
2018-07-25T12:51:46.413Z,2.20
2018-07-25T12:52:46.584Z,2.40
2018-07-25T12:53:46.835Z,2.10
2018-07-25T12:54:46.997Z,1.90
2018-07-25T12:55:47.141Z,2.10
2018-07-25T12:56:47.374Z,2.00
2018-07-25T12:57:47.570Z,1.80
2018-07-25T12:58:47.747Z,1.90
2018-07-25T12:59:47.932Z,1.80
2018-07-25T13:00:48.114Z,1.90
2018-07-25T13:01:48.291Z,2.50
2018-07-25T13:02:48.553Z,2.40
2018-07-25T13:03:48.677Z,2.70
2018-07-25T13:04:48.843Z,2.30
2018-07-25T13:05:49.022Z,2.00
2018-07-25T13:06:49.229Z,2.10
2018-07-25T13:07:49.381Z,2.00
2018-07-25T13:08:49.586Z,2.10
2018-07-25T13:09:49.780Z,2.00
2018-07-25T13:10:49.975Z,2.10
2018-07-25T13:11:50.144Z,1.80
2018-07-25T13:12:50.335Z,2.20
2018-07-25T13:13:50.520Z,1.90
2018-07-25T13:14:50.699Z,2.10
2018-07-25T13:15:50.937Z,2.20
2018-07-25T13:16:51.072Z,2.10
2018-07-25T13:17:51.265Z,2.10
2018-07-25T13:18:51.457Z,2.00
2018-07-25T13:19:51.646Z,2.20
2018-07-25T13:20:51.831Z,2.20
2018-07-25T13:21:52.027Z,2.30
2018-07-25T13:22:52.237Z,2.10
2018-07-25T13:23:52.405Z,1.90
2018-07-25T13:24:52.598Z,1.90
2018-07-25T13:25:52.779Z,2.10
2018-07-25T13:26:52.968Z,2.10
2018-07-25T13:27:53.169Z,2.20
2018-07-25T13:28:53.431Z,2.10
2018-07-25T13:29:53.568Z,2.00
2018-07-25T13:30:53.757Z,2.00
2018-07-25T13:31:53.944Z,2.30